Time;durP1;ratioP1;P1;durP2;ratioP2;P2;SDS_P1;SDS_P2;PMS_P1;PMS_P2;Temp;Humidity;BMP_temperature;BMP_pressure;BME280_temperature;BME280_humidity;BME280_pressure;Samples;Min_cycle;Max_cycle;Signal;HPM_P1;HPM_P2
2022/05/20 00:03:15;;;;;;;8.90;4.90;;;;;;;7.05;84.65;98745.00;10329512;28;20080;-58
2022/05/20 00:08:15;;;;;;;8.77;5.45;;;;;;;7.01;84.03;98748.34;10329885;28;20072;-58
2022/05/20 00:13:15;;;;;;;9.20;4.95;;;;;;;6.96;84.20;98742.16;10318122;28;20065;-59
2022/05/20 00:18:14;;;;;;;9.63;5.53;;;;;;;6.86;83.75;98725.53;10318869;28;20074;-59
2022/05/20 00:23:13;;;;;;;10.60;5.60;;;;;;;6.89;84.77;98737.63;10318118;28;20140;-59
2022/05/20 00:28:19;;;;;;;10.88;5.82;;;;;;;6.81;85.93;98750.31;10307992;28;20041;-58
2022/05/20 00:33:19;;;;;;;13.63;7.30;;;;;;;6.78;85.17;98752.81;10320463;28;20066;-58
2022/05/20 00:38:18;;;;;;;;;;;;;;;6.67;86.40;98759.34;10314214;28;20146;-59
2022/05/20 00:43:26;;;;;;;13.68;7.43;;;;;;;6.61;86.07;98755.75;10328239;28;19956;-59
2022/05/20 00:48:25;;;;;;;16.55;8.75;;;;;;;6.53;86.31;98764.94;10326427;28;20072;-59
2022/05/20 00:53:30;;;;;;;20.00;9.20;;;;;;;6.50;86.04;98766.56;10325684;28;20060;-58
2022/05/20 00:58:29;;;;;;;17.70;8.50;;;;;;;6.45;86.34;98760.41;10325180;28;20480;-59
2022/05/20 01:03:30;;;;;;;18.35;8.30;;;;;;;6.45;86.65;98770.72;10326521;28;20765;-58
2022/05/20 01:08:31;;;;;;;16.80;8.18;;;;;;;6.41;86.47;98769.72;10327900;28;20068;-59
2022/05/20 01:13:31;;;;;;;13.88;7.70;;;;;;;6.35;87.17;98777.25;10342879;28;20072;-58
2022/05/20 01:18:37;;;;;;;14.90;7.30;;;;;;;6.29;86.94;98765.06;10333440;28;20073;-58
2022/05/20 01:23:37;;;;;;;11.75;6.22;;;;;;;6.29;86.82;98753.88;10341608;28;20117;-58
2022/05/20 01:28:36;;;;;;;15.10;7.45;;;;;;;6.27;87.16;98747.78;10318497;28;20072;-58
2022/05/20 01:33:39;;;;;;;13.52;6.82;;;;;;;6.21;87.17;98753.63;10344814;28;20591;-58
2022/05/20 01:38:38;;;;;;;14.30;6.95;;;;;;;6.07;87.24;98726.50;10333976;28;20084;-58
2022/05/20 01:43:55;;;;;;;;;;;;;;;6.13;86.85;98737.91;10338826;28;20069;-58
2022/05/20 01:49:19;;;;;;;12.40;6.88;;;;;;;6.10;87.54;98749.81;10335956;28;19963;-58
2022/05/20 01:55:05;;;;;;;14.82;6.60;;;;;;;6.04;87.99;98754.78;10328392;28;20072;-58
2022/05/20 02:00:16;;;;;;;15.57;6.82;;;;;;;5.97;88.18;98751.97;10339514;28;20140;-58
2022/05/20 02:05:23;;;;;;;;;;;;;;;5.88;88.66;98758.53;10339470;28;20069;-58
2022/05/20 02:10:35;;;;;;;12.35;6.40;;;;;;;5.76;88.26;98757.28;10325288;28;19952;-58
2022/05/20 02:15:48;;;;;;;11.07;5.93;;;;;;;5.73;87.85;98743.44;10335800;28;20065;-58
2022/05/20 02:20:54;;;;;;;12.05;6.70;;;;;;;5.63;88.37;98743.97;10324236;28;20080;-58
2022/05/20 02:25:57;;;;;;;13.77;6.35;;;;;;;5.47;88.74;98721.94;10337088;28;20456;-58
2022/05/20 02:30:56;;;;;;;12.30;5.45;;;;;;;5.38;88.83;98743.09;10318096;28;20536;-58
2022/05/20 02:36:17;;;;;;;18.10;6.82;;;;;;;5.23;89.51;98738.28;10328382;28;20069;-58
2022/05/20 02:41:16;;;;;;;11.80;5.65;;;;;;;5.17;89.52;98750.06;10327135;28;20076;-58
2022/05/20 02:46:15;;;;;;;12.77;6.60;;;;;;;5.06;89.40;98729.97;10333909;28;20081;-58
2022/05/20 02:51:17;;;;;;;12.10;6.18;;;;;;;5.12;89.28;98737.88;10315604;28;20033;-58
2022/05/20 02:56:15;;;;;;;11.55;6.25;;;;;;;5.15;89.30;98731.97;10334118;28;20061;-58
2022/05/20 03:06:33;;;;;;;13.02;6.13;;;;;;;5.23;89.22;98740.84;10309845;28;20083;-58
2022/05/20 03:11:33;;;;;;;9.35;5.80;;;;;;;5.18;89.22;98728.63;10323031;28;20021;-58
2022/05/20 03:16:32;;;;;;;9.93;5.53;;;;;;;5.29;89.35;98737.63;10339981;28;20735;-58
2022/05/20 03:21:33;;;;;;;12.68;7.07;;;;;;;5.27;89.35;98750.41;10338668;28;20447;-58
2022/05/20 03:26:33;;;;;;;11.35;6.28;;;;;;;5.26;90.19;98756.41;10332768;28;20068;-58
2022/05/20 03:31:34;;;;;;;15.32;6.70;;;;;;;5.32;90.22;98760.88;10315301;28;20077;-58
2022/05/20 03:36:35;;;;;;;12.88;6.50;;;;;;;5.40;90.31;98764.63;10331029;28;20069;-58
2022/05/20 03:41:36;;;;;;;14.07;7.03;;;;;;;5.40;90.26;98769.75;10332403;28;20080;-58
2022/05/20 03:46:46;;;;;;;11.23;6.78;;;;;;;5.37;90.92;98772.25;10320851;28;20081;-58
2022/05/20 03:51:49;;;;;;;22.90;8.27;;;;;;;5.43;91.28;98780.16;10328782;28;20076;-58
2022/05/20 03:56:48;;;;;;;15.35;7.78;;;;;;;5.26;91.20;98747.81;10331184;28;20508;-58
2022/05/20 04:01:59;;;;;;;19.33;11.00;;;;;;;5.43;91.28;98776.72;10321733;28;20069;-58
2022/05/20 04:07:00;;;;;;;22.80;11.60;;;;;;;5.41;91.15;98775.78;10299809;28;20124;-58
2022/05/20 04:12:03;;;;;;;18.10;8.55;;;;;;;5.39;91.73;98780.91;10313842;28;20088;-58
2022/05/20 04:17:03;;;;;;;16.35;7.55;;;;;;;5.39;91.55;98787.72;10314065;28;20484;-58
2022/05/20 04:22:08;;;;;;;17.42;8.02;;;;;;;5.55;91.50;98777.16;10328570;28;20068;-58
2022/05/20 04:27:07;;;;;;;16.00;8.65;;;;;;;5.72;91.27;98776.06;10315253;28;20457;-58
2022/05/20 04:32:06;;;;;;;16.73;8.98;;;;;;;5.91;91.42;98787.00;10321392;28;20510;-58
2022/05/20 04:37:05;;;;;;;17.85;9.73;;;;;;;6.17;91.98;98786.16;10321802;28;20599;-58
2022/05/20 04:47:25;;;;;;;12.65;7.57;;;;;;;6.77;91.12;98790.66;10318334;28;20068;-58
2022/05/20 04:52:24;;;;;;;12.98;7.63;;;;;;;7.02;90.49;98791.38;10320337;28;20077;-58
2022/05/20 04:57:32;;;;;;;13.85;6.75;;;;;;;7.20;90.01;98794.50;10326395;28;20057;-59
2022/05/20 05:02:32;;;;;;;11.07;6.18;;;;;;;7.51;89.16;98803.16;10311300;28;20069;-59
2022/05/20 05:07:31;;;;;;;22.60;10.77;;;;;;;7.81;88.04;98797.06;10317703;28;20084;-59
2022/05/20 05:12:30;;;;;;;18.15;7.78;;;;;;;8.10;86.68;98800.41;10322278;28;20061;-58
2022/05/20 05:22:55;;;;;;;17.58;8.13;;;;;;;8.39;85.42;98736.50;10327355;28;20073;-59
2022/05/20 05:27:54;;;;;;;17.85;8.75;;;;;;;8.92;84.78;98770.44;10315506;28;20129;-59
2022/05/20 05:32:53;;;;;;;14.32;7.80;;;;;;;9.24;83.47;98772.00;10329965;28;20516;-58
2022/05/20 05:37:53;;;;;;;13.27;7.65;;;;;;;9.52;81.39;98769.13;10331136;28;20460;-58
2022/05/20 05:42:54;;;;;;;12.20;7.15;;;;;;;9.72;79.13;98782.47;10328775;28;20073;-59
2022/05/20 05:47:57;;;;;;;18.33;7.90;;;;;;;10.08;80.42;98781.38;10335252;28;20095;-59
2022/05/20 05:53:07;;;;;;;10.25;7.03;;;;;;;10.37;78.70;98774.09;10333424;28;20065;-58
2022/05/20 05:58:07;;;;;;;10.57;6.80;;;;;;;10.62;78.10;98767.56;10334478;28;20092;-58
2022/05/20 06:03:06;;;;;;;15.50;7.45;;;;;;;10.84;76.52;98767.88;10318075;28;20077;-58
2022/05/20 06:08:06;;;;;;;11.23;7.10;;;;;;;11.06;75.27;98755.19;10327981;28;20115;-59
2022/05/20 06:13:05;;;;;;;12.57;6.88;;;;;;;11.31;73.52;98757.25;10323508;28;20120;-59
2022/05/20 06:18:04;;;;;;;;;;;;;;;11.48;73.18;98751.38;10331106;28;20096;-59
2022/05/20 06:23:03;;;;;;;10.30;6.30;;;;;;;11.79;70.77;98765.63;10327352;28;20035;-59
2022/05/20 06:28:05;;;;;;;9.95;5.90;;;;;;;12.03;70.03;98751.97;10321919;28;20083;-59
2022/05/20 06:33:05;;;;;;;9.20;5.63;;;;;;;12.22;70.92;98753.00;10321155;28;20096;-59
2022/05/20 06:43:23;;;;;;;8.73;5.10;;;;;;;12.60;67.63;98753.34;10333400;28;20065;-59
2022/05/20 06:48:24;;;;;;;7.70;4.47;;;;;;;12.77;66.95;98747.38;10321520;28;20029;-58
2022/05/20 06:53:23;;;;;;;6.50;4.15;;;;;;;12.90;66.73;98737.00;10323772;28;20069;-59
2022/05/20 06:58:22;;;;;;;7.43;4.15;;;;;;;13.21;66.44;98741.50;10329885;28;20124;-59
2022/05/20 07:03:21;;;;;;;7.78;3.90;;;;;;;13.28;64.62;98735.44;10331809;28;20126;-58
2022/05/20 07:08:21;;;;;;;8.93;3.30;;;;;;;13.49;63.01;98737.25;10334286;28;20061;-59
2022/05/20 07:13:20;;;;;;;5.45;2.70;;;;;;;13.67;59.54;98734.72;10326809;28;20056;-58
2022/05/20 07:18:19;;;;;;;6.22;3.08;;;;;;;14.10;61.01;98726.09;10325127;28;20104;-59
2022/05/20 07:23:18;;;;;;;5.80;2.60;;;;;;;14.36;58.04;98724.34;10327218;28;20125;-59
2022/05/20 07:28:17;;;;;;;;;;;;;;;14.69;56.98;98719.97;10331834;28;20069;-59
2022/05/20 07:33:16;;;;;;;4.20;2.60;;;;;;;14.94;57.95;98701.63;10330542;28;19917;-59
2022/05/20 07:38:15;;;;;;;;;;;;;;;15.17;55.86;98705.03;10332423;28;20469;-59
2022/05/20 07:43:14;;;;;;;6.15;2.85;;;;;;;15.39;54.88;98694.47;10325987;28;20749;-59
2022/05/20 07:48:13;;;;;;;4.15;2.58;;;;;;;15.68;54.41;98703.00;10326009;28;20473;-59
2022/05/20 07:53:22;;;;;;;5.95;2.58;;;;;;;16.05;54.51;98697.56;10326060;28;20587;-59
2022/05/20 07:58:27;;;;;;;5.90;2.15;;;;;;;16.21;52.73;98702.69;10328502;28;20083;-59
2022/05/20 08:08:45;;;;;;;6.25;2.90;;;;;;;16.71;51.56;98691.69;10312676;28;20064;-59
2022/05/20 08:13:44;;;;;;;;;;;;;;;16.93;51.17;98686.22;10330441;28;20022;-59
2022/05/20 08:18:43;;;;;;;3.78;2.10;;;;;;;17.14;49.29;98683.38;10322780;28;20656;-59
2022/05/20 08:23:44;;;;;;;4.82;2.20;;;;;;;17.37;47.82;98663.81;10319564;28;20163;-59
2022/05/20 08:28:44;;;;;;;4.38;2.20;;;;;;;17.71;49.44;98677.34;10318013;28;20080;-59
2022/05/20 08:33:44;;;;;;;4.93;1.75;;;;;;;18.06;46.18;98662.81;10326920;28;20164;-59
2022/05/20 08:38:43;;;;;;;1.70;1.55;;;;;;;18.32;42.33;98665.00;10318201;28;20112;-59
2022/05/20 08:43:42;;;;;;;2.25;1.90;;;;;;;18.64;41.57;98646.88;10326339;28;20124;-59
2022/05/20 08:48:42;;;;;;;2.38;2.00;;;;;;;18.91;40.58;98656.91;10321467;28;20121;-59
2022/05/20 08:53:44;;;;;;;3.58;2.03;;;;;;;19.10;36.83;98640.72;10317048;28;20489;-59
2022/05/20 08:58:52;;;;;;;3.25;2.10;;;;;;;19.37;31.78;98642.78;10316132;28;20065;-59
2022/05/20 09:03:51;;;;;;;5.63;1.40;;;;;;;19.63;24.76;98636.06;10315244;28;20081;-59
2022/05/20 09:09:11;;;;;;;3.35;1.70;;;;;;;19.99;25.86;98621.13;10327486;28;20144;-59
2022/05/20 09:19:34;;;;;;;1.92;1.00;;;;;;;20.36;22.62;98609.63;10320530;28;20072;-58
2022/05/20 09:24:42;;;;;;;1.52;1.00;;;;;;;20.60;21.86;98615.19;10330549;28;20160;-58
2022/05/20 09:29:47;;;;;;;1.25;1.15;;;;;;;20.86;26.45;98591.53;10334933;28;20509;-58
2022/05/20 09:34:57;;;;;;;1.63;1.10;;;;;;;21.15;23.52;98597.75;10338495;28;20190;-58
2022/05/20 09:39:56;;;;;;;0.80;0.80;;;;;;;21.33;22.16;98580.50;10326133;28;20173;-58
2022/05/20 09:45:03;;;;;;;0.90;0.77;;;;;;;21.42;17.88;98584.63;10345525;28;20049;-58
2022/05/20 09:50:25;;;;;;;1.08;0.93;;;;;;;21.63;20.05;98572.50;10332932;28;20084;-58
2022/05/20 09:55:36;;;;;;;3.25;1.20;;;;;;;21.73;19.56;98574.81;10320093;28;20076;-58
2022/05/20 10:00:36;;;;;;;1.38;1.10;;;;;;;21.84;20.91;98566.50;10329980;28;20602;-58
2022/05/20 10:06:01;;;;;;;3.28;1.00;;;;;;;22.03;21.45;98560.63;10326359;28;20072;-58
2022/05/20 10:11:07;;;;;;;1.30;1.20;;;;;;;22.28;22.71;98565.94;10311254;28;20084;-58
2022/05/20 10:16:11;;;;;;;1.88;1.05;;;;;;;22.41;21.98;98550.47;10320154;28;20072;-58
2022/05/20 10:21:21;;;;;;;1.05;0.95;;;;;;;22.47;19.75;98540.53;10334113;28;20069;-58
2022/05/20 10:26:40;;;;;;;2.28;1.05;;;;;;;22.65;19.51;98539.00;10326304;28;20081;-58
2022/05/20 10:37:09;;;;;;;2.47;1.00;;;;;;;22.93;17.55;98527.41;10350753;28;20406;-58
2022/05/20 10:42:35;;;;;;;1.85;0.98;;;;;;;23.22;18.60;98511.22;10333375;28;20493;-58
2022/05/20 10:53:31;;;;;;;1.75;0.90;;;;;;;23.20;15.96;98502.47;10316831;28;20524;-58
2022/05/20 10:58:52;;;;;;;2.10;1.30;;;;;;;23.52;16.38;98500.31;10317773;28;20083;-58
2022/05/20 11:04:32;;;;;;;3.70;1.67;;;;;;;23.48;17.87;98497.88;10325291;28;20140;-58
2022/05/20 11:09:50;;;;;;;3.65;2.13;;;;;;;23.67;18.42;98490.88;10312890;28;20456;-58
2022/05/20 11:15:07;;;;;;;1.85;1.52;;;;;;;23.63;18.10;98484.84;10331537;28;20143;-58
2022/05/20 11:20:53;;;;;;;4.93;1.45;;;;;;;23.82;18.93;98478.75;10304790;28;20164;-58
2022/05/20 11:26:11;;;;;;;2.88;2.17;;;;;;;23.81;20.49;98475.22;10322110;28;20112;-58
2022/05/20 11:31:19;;;;;;;3.55;1.60;;;;;;;23.85;20.75;98462.72;10327299;28;20759;-58
2022/05/20 11:36:33;;;;;;;4.43;1.60;;;;;;;24.30;22.12;98458.97;10330644;28;20065;-58
2022/05/20 11:41:50;;;;;;;2.20;1.63;;;;;;;24.41;19.34;98455.84;10315053;28;20316;-58
2022/05/20 11:46:59;;;;;;;2.13;1.70;;;;;;;24.26;19.98;98454.72;10330352;28;20069;-58
2022/05/20 11:52:23;;;;;;;3.20;1.30;;;;;;;24.54;20.86;98448.16;10320572;28;20080;-59
2022/05/20 11:57:27;;;;;;;4.07;1.70;;;;;;;24.67;21.11;98444.00;10324179;28;20065;-58
2022/05/20 12:02:28;;;;;;;3.25;1.60;;;;;;;24.81;20.19;98436.22;10326588;28;20138;-58
2022/05/20 12:07:27;;;;;;;2.30;1.40;;;;;;;25.17;22.06;98419.47;10301859;28;20073;-58
2022/05/20 12:12:52;;;;;;;2.60;1.48;;;;;;;25.58;21.52;98413.88;10313046;28;20610;-58
2022/05/20 12:17:52;;;;;;;3.80;1.50;;;;;;;25.57;21.02;98401.53;10312506;28;20072;-58
2022/05/20 12:28:23;;;;;;;3.50;1.50;;;;;;;25.52;20.48;98399.06;10301428;28;20069;-58
2022/05/20 12:33:26;;;;;;;1.70;1.40;;;;;;;25.55;19.93;98379.50;10313438;28;20041;-58
2022/05/20 12:38:25;;;;;;;3.75;1.65;;;;;;;25.56;21.48;98393.66;10316132;28;20065;-58
2022/05/20 12:43:46;;;;;;;1.77;1.38;;;;;;;25.51;21.55;98385.88;10314962;28;20097;-58
2022/05/20 12:48:45;;;;;;;1.40;1.30;;;;;;;25.78;21.49;98372.09;10311751;28;20997;-58
2022/05/20 12:53:44;;;;;;;6.45;1.73;;;;;;;26.02;22.20;98369.91;10329399;28;20535;-58
2022/05/20 12:58:44;;;;;;;3.35;1.40;;;;;;;26.31;22.85;98368.38;10317842;28;20081;-58
2022/05/20 13:03:45;;;;;;;2.00;1.30;;;;;;;26.39;20.66;98357.28;10312014;28;20077;-58
2022/05/20 13:08:50;;;;;;;2.40;1.45;;;;;;;26.38;20.04;98348.47;10322703;28;20076;-59
2022/05/20 13:13:59;;;;;;;3.08;1.75;;;;;;;26.45;21.68;98333.88;10324733;28;20084;-59
2022/05/20 13:19:08;;;;;;;4.97;1.60;;;;;;;26.58;20.36;98340.22;10327955;28;20060;-59
2022/05/20 13:24:16;;;;;;;1.75;1.40;;;;;;;26.24;19.15;98327.09;10332371;28;20064;-59
2022/05/20 13:29:21;;;;;;;4.53;1.60;;;;;;;26.13;19.75;98312.53;10319014;28;20556;-59
2022/05/20 13:34:20;;;;;;;2.38;1.20;;;;;;;26.19;19.25;98315.81;10335111;28;20077;-59
2022/05/20 13:39:23;;;;;;;5.70;1.70;;;;;;;26.14;19.86;98308.94;10327817;28;20156;-59
2022/05/20 13:44:22;;;;;;;2.33;1.40;;;;;;;26.43;20.46;98293.16;10328526;28;20077;-59
2022/05/20 13:49:26;;;;;;;2.40;1.40;;;;;;;26.42;19.85;98288.81;10330938;28;20045;-59
2022/05/20 13:54:33;;;;;;;1.77;1.40;;;;;;;26.60;20.45;98288.69;10325916;28;20931;-59
2022/05/20 13:59:35;;;;;;;1.60;1.27;;;;;;;26.65;19.64;98291.94;10329996;28;20057;-59
2022/05/20 14:04:43;;;;;;;1.65;1.42;;;;;;;26.82;20.04;98286.50;10337098;28;20073;-59
2022/05/20 14:09:58;;;;;;;2.63;1.48;;;;;;;26.65;20.05;98291.94;10332660;28;20477;-59
2022/05/20 14:15:02;;;;;;;3.05;1.60;;;;;;;26.81;21.51;98286.56;10334429;28;20049;-58
2022/05/20 14:20:08;;;;;;;3.75;2.65;;;;;;;27.04;21.81;98282.59;10336539;28;20065;-59
2022/05/20 14:25:44;;;;;;;4.20;2.47;;;;;;;26.74;19.38;98283.41;10331472;28;20077;-59
2022/05/20 14:30:47;;;;;;;13.50;7.65;;;;;;;26.43;19.53;98276.34;10332446;28;20080;-59
2022/05/20 14:35:50;;;;;;;42.65;29.17;;;;;;;26.33;19.83;98265.38;10335263;28;20131;-59
2022/05/20 14:40:54;;;;;;;6.75;4.45;;;;;;;26.40;19.37;98272.06;10333824;28;20130;-59
2022/05/20 14:45:58;;;;;;;2.05;1.23;;;;;;;26.48;19.98;98263.63;10334889;28;20116;-59
2022/05/20 14:50:58;;;;;;;14.63;9.75;;;;;;;26.61;20.65;98269.97;10335081;28;20515;-59
2022/05/20 14:56:00;;;;;;;2.08;1.58;;;;;;;26.49;19.79;98250.25;10321090;28;20069;-59
2022/05/20 15:01:05;;;;;;;13.52;7.90;;;;;;;26.54;20.23;98252.66;10318972;28;20069;-59
2022/05/20 15:06:05;;;;;;;3.33;1.35;;;;;;;26.31;19.61;98248.66;10319021;28;20124;-59
2022/05/20 15:11:16;;;;;;;10.93;4.82;;;;;;;26.13;19.57;98261.13;10330271;28;20873;-59
2022/05/20 15:16:15;;;;;;;3.38;2.13;;;;;;;25.95;21.03;98252.41;10332832;28;20072;-59
2022/05/20 15:21:24;;;;;;;28.08;21.02;;;;;;;25.66;21.35;98238.06;10331674;28;20065;-59
2022/05/20 15:26:25;;;;;;;7.15;5.45;;;;;;;25.79;20.93;98235.59;10329386;28;20065;-59
2022/05/20 15:36:49;;;;;;;3.13;1.98;;;;;;;25.32;21.39;98210.63;10348406;28;20065;-59
2022/05/20 15:41:48;;;;;;;6.32;2.58;;;;;;;25.41;21.26;98228.75;10331652;28;20061;-59
2022/05/20 15:46:47;;;;;;;3.75;2.03;;;;;;;25.49;22.28;98225.66;10331254;28;20109;-59
2022/05/20 15:51:46;;;;;;;2.00;1.65;;;;;;;25.24;21.60;98212.81;10332451;28;20064;-59
2022/05/20 15:56:47;;;;;;;5.78;4.95;;;;;;;25.12;22.08;98217.00;10333276;28;20061;-60
2022/05/20 16:01:46;;;;;;;5.10;2.15;;;;;;;25.05;22.54;98215.59;10327003;28;20488;-59
2022/05/20 16:06:46;;;;;;;9.20;2.40;;;;;;;24.96;22.93;98210.78;10327691;28;20096;-58
2022/05/20 16:11:47;;;;;;;3.22;1.88;;;;;;;25.00;23.13;98201.72;10325747;28;20123;-58
2022/05/20 16:16:46;;;;;;;1.60;1.10;;;;;;;25.06;23.12;98207.56;10329795;28;20084;-58
2022/05/20 16:21:47;;;;;;;4.90;1.98;;;;;;;25.01;23.82;98200.75;10325986;28;20087;-58
2022/05/20 16:26:47;;;;;;;1.83;1.30;;;;;;;25.05;24.67;98186.38;10320154;28;20096;-59
2022/05/20 16:31:47;;;;;;;3.58;1.40;;;;;;;24.97;25.05;98196.56;10317432;28;20076;-59
2022/05/20 16:36:47;;;;;;;3.00;2.10;;;;;;;24.90;25.46;98188.91;10326208;28;20116;-57
2022/05/20 16:41:46;;;;;;;4.20;1.80;;;;;;;24.96;25.32;98189.53;10323963;28;20636;-58
2022/05/20 16:46:53;;;;;;;4.03;1.40;;;;;;;24.86;25.20;98190.00;10333935;28;20832;-57
2022/05/20 16:51:58;;;;;;;4.70;2.25;;;;;;;24.73;25.53;98193.34;10340869;28;20103;-57
2022/05/20 17:02:20;;;;;;;2.90;1.80;;;;;;;24.54;29.02;98190.78;10329741;28;20465;-57
2022/05/20 17:07:19;;;;;;;4.20;2.55;;;;;;;24.33;29.89;98185.59;10328046;28;20070;-58
2022/05/20 17:12:18;;;;;;;10.85;2.38;;;;;;;24.02;30.74;98181.78;10314688;28;20053;-58
2022/05/20 17:17:17;;;;;;;5.68;1.77;;;;;;;23.72;31.12;98180.63;10329638;28;20053;-58
2022/05/20 17:27:33;;;;;;;5.78;2.10;;;;;;;22.92;31.65;98187.75;10320037;28;20073;-59
2022/05/20 17:32:32;;;;;;;8.57;2.38;;;;;;;22.42;32.16;98187.28;10341225;28;20054;-58
2022/05/20 17:37:31;;;;;;;10.30;2.50;;;;;;;21.97;33.18;98183.78;10341147;28;20052;-58
2022/05/20 17:42:31;;;;;;;4.60;2.17;;;;;;;21.51;34.48;98177.66;10341491;28;20065;-58
2022/05/20 17:47:30;;;;;;;3.80;1.90;;;;;;;20.99;35.84;98177.81;10336703;28;20069;-58
2022/05/20 17:52:29;;;;;;;4.47;2.63;;;;;;;20.52;36.77;98180.34;10339365;28;20061;-58
2022/05/20 17:57:30;;;;;;;5.25;2.55;;;;;;;20.17;37.38;98186.78;10339248;28;20032;-57
2022/05/20 18:02:29;;;;;;;6.88;2.53;;;;;;;19.85;38.77;98172.88;10339786;28;20444;-57
2022/05/20 18:07:28;;;;;;;5.70;2.10;;;;;;;19.49;39.52;98175.69;10339073;28;20485;-58
2022/05/20 18:12:27;;;;;;;6.10;2.08;;;;;;;19.15;40.06;98170.56;10336659;28;20564;-58
2022/05/20 18:17:29;;;;;;;5.20;2.92;;;;;;;18.85;40.27;98175.78;10335848;28;20073;-57
2022/05/20 18:22:33;;;;;;;5.00;2.42;;;;;;;18.71;40.89;98180.56;10333861;28;20068;-57
2022/05/20 18:27:33;;;;;;;7.57;3.53;;;;;;;18.47;41.63;98177.63;10324219;28;20061;-57
2022/05/20 18:32:32;;;;;;;12.43;6.50;;;;;;;18.18;42.32;98163.50;10335739;28;20088;-58
2022/05/20 18:42:49;;;;;;;39.58;15.50;;;;;;;17.85;44.27;98180.09;10333989;28;20060;-57
2022/05/20 18:47:48;;;;;;;19.63;7.53;;;;;;;17.65;44.83;98185.75;10327216;28;20144;-58
2022/05/20 18:52:47;;;;;;;26.52;12.43;;;;;;;17.49;45.46;98182.59;10327518;28;20432;-58
2022/05/20 18:57:46;;;;;;;;;;;;;;;17.32;46.80;98193.44;10332539;28;20072;-58
2022/05/20 19:02:45;;;;;;;16.83;7.03;;;;;;;17.18;46.98;98185.00;10332692;28;20010;-58
2022/05/20 19:07:44;;;;;;;18.90;6.05;;;;;;;17.03;46.65;98189.69;10331579;28;20053;-58
2022/05/20 19:12:45;;;;;;;8.48;3.60;;;;;;;16.88;46.69;98197.81;10332584;28;20065;-58
2022/05/20 19:17:44;;;;;;;6.97;2.97;;;;;;;16.71;46.51;98200.75;10316898;28;20080;-58
2022/05/20 19:22:44;;;;;;;6.95;3.10;;;;;;;16.41;46.59;98181.19;10327872;28;20065;-58
2022/05/20 19:27:44;;;;;;;9.05;3.97;;;;;;;16.27;46.77;98192.75;10305233;28;20456;-58
2022/05/20 19:32:43;;;;;;;8.88;3.85;;;;;;;16.07;47.32;98181.78;10328644;28;20088;-58
2022/05/20 19:37:45;;;;;;;10.75;4.10;;;;;;;15.97;48.29;98188.03;10352383;28;20076;-58
2022/05/20 19:42:44;;;;;;;13.00;3.83;;;;;;;15.83;49.63;98198.72;10331035;28;20076;-58
2022/05/20 19:47:43;;;;;;;;;;;;;;;15.58;56.80;98203.41;10328566;28;20029;-58
2022/05/20 19:52:42;;;;;;;9.27;4.35;;;;;;;15.48;55.98;98196.56;10331093;28;19920;-58
2022/05/20 20:02:59;;;;;;;8.35;3.58;;;;;;;15.23;57.16;98187.31;10332434;28;19964;-58
2022/05/20 20:07:58;;;;;;;6.53;3.55;;;;;;;15.08;58.20;98182.25;10333204;28;20077;-58
2022/05/20 20:13:00;;;;;;;10.73;4.80;;;;;;;14.97;58.58;98177.19;10329721;28;20036;-58
2022/05/20 20:17:59;;;;;;;8.25;3.80;;;;;;;14.83;57.30;98174.72;10331976;28;20069;-58
2022/05/20 20:28:16;;;;;;;5.03;2.90;;;;;;;14.53;57.00;98162.81;10325362;28;19983;-58
2022/05/20 20:33:16;;;;;;;6.85;3.55;;;;;;;14.45;58.46;98156.78;10322006;28;20493;-58
2022/05/20 20:38:15;;;;;;;7.65;3.20;;;;;;;14.36;59.18;98157.78;10334492;28;20061;-58
2022/05/20 20:43:15;;;;;;;;;;;;;;;14.31;60.37;98149.13;10335697;28;20053;-58
2022/05/20 20:48:14;;;;;;;13.43;4.18;;;;;;;14.25;61.58;98149.16;10341620;28;19956;-58
2022/05/20 20:53:16;;;;;;;9.30;3.78;;;;;;;14.08;63.10;98148.47;10332601;28;20084;-58
2022/05/20 20:58:18;;;;;;;10.48;5.70;;;;;;;13.92;64.82;98145.97;10334616;28;20057;-58
2022/05/20 21:03:20;;;;;;;7.50;3.75;;;;;;;13.72;66.79;98143.50;10340886;28;20069;-58
2022/05/20 21:08:20;;;;;;;11.65;4.35;;;;;;;13.64;65.69;98141.84;10341011;28;20068;-58
2022/05/20 21:13:19;;;;;;;9.55;4.47;;;;;;;13.53;66.30;98142.75;10341853;28;20500;-58
2022/05/20 21:18:18;;;;;;;7.32;3.25;;;;;;;13.27;67.94;98149.88;10341065;28;20018;-58
2022/05/20 21:23:19;;;;;;;9.45;3.78;;;;;;;13.17;67.90;98148.19;10340686;28;20105;-59
2022/05/20 21:28:19;;;;;;;8.57;3.97;;;;;;;13.09;67.49;98143.88;10328539;28;20068;-59
2022/05/20 21:33:19;;;;;;;8.88;4.03;;;;;;;13.04;67.68;98140.41;10323397;28;20092;-58
2022/05/20 21:38:19;;;;;;;7.82;4.13;;;;;;;12.97;67.87;98143.06;10327463;28;20069;-59
2022/05/20 21:43:19;;;;;;;7.47;4.55;;;;;;;12.79;68.26;98124.06;10331799;28;20067;-58
2022/05/20 21:48:18;;;;;;;8.10;4.05;;;;;;;12.80;69.02;98135.31;10338375;28;20069;-58
2022/05/20 21:53:17;;;;;;;11.32;4.05;;;;;;;12.66;68.96;98123.22;10320631;28;20077;-58
2022/05/20 21:58:16;;;;;;;4.88;2.90;;;;;;;12.55;69.10;98124.97;10337613;28;20061;-58
2022/05/20 22:08:44;;;;;;;5.90;2.78;;;;;;;12.33;68.63;98111.16;10334707;28;20136;-59
2022/05/20 22:13:43;;;;;;;5.53;2.95;;;;;;;12.23;68.61;98112.91;10334408;28;20069;-58
2022/05/20 22:18:42;;;;;;;5.43;3.20;;;;;;;12.20;68.76;98118.09;10334746;28;20754;-59
2022/05/20 22:23:46;;;;;;;6.45;3.33;;;;;;;12.13;69.12;98103.34;10326720;28;20747;-59
2022/05/20 22:28:45;;;;;;;10.68;4.05;;;;;;;11.96;69.66;98098.19;10318523;28;20085;-59
2022/05/20 22:33:44;;;;;;;7.25;3.65;;;;;;;11.82;70.61;98069.59;10335988;28;20103;-59
2022/05/20 22:38:44;;;;;;;9.30;3.70;;;;;;;11.82;71.70;98095.59;10335895;28;20064;-59
2022/05/20 22:43:43;;;;;;;9.38;4.47;;;;;;;11.70;71.90;98080.00;10336284;28;20518;-59
2022/05/20 22:48:42;;;;;;;14.15;4.72;;;;;;;11.71;72.38;98091.25;10335398;28;20483;-59
2022/05/20 22:53:41;;;;;;;11.25;4.70;;;;;;;11.61;72.78;98083.47;10318007;28;20061;-59
2022/05/20 22:58:48;;;;;;;9.95;4.15;;;;;;;11.54;73.38;98086.06;10336322;28;20485;-59
2022/05/20 23:03:48;;;;;;;11.52;4.72;;;;;;;11.44;73.94;98073.06;10335312;28;20064;-59
2022/05/20 23:08:48;;;;;;;7.90;4.30;;;;;;;11.37;74.23;98063.53;10334795;28;20084;-59
2022/05/20 23:13:47;;;;;;;10.82;3.90;;;;;;;11.29;74.51;98062.69;10335508;28;20069;-59
2022/05/20 23:18:46;;;;;;;8.93;4.32;;;;;;;11.19;74.62;98063.50;10334226;28;20077;-59
2022/05/20 23:23:46;;;;;;;6.47;3.72;;;;;;;11.08;75.84;98062.63;10325963;28;20046;-59
2022/05/20 23:28:45;;;;;;;;;;;;;;;10.94;76.69;98057.41;10315562;28;20599;-59
2022/05/20 23:33:45;;;;;;;9.27;4.10;;;;;;;10.73;76.84;98040.00;10341358;28;20463;-59
2022/05/20 23:38:44;;;;;;;9.90;4.03;;;;;;;10.80;77.64;98057.34;10323116;28;20072;-59
2022/05/20 23:43:43;;;;;;;9.52;4.25;;;;;;;10.70;78.02;98060.75;10332994;28;20072;-59
2022/05/20 23:48:42;;;;;;;6.63;3.72;;;;;;;10.42;79.26;98071.03;10352927;28;20056;-59
2022/05/20 23:53:41;;;;;;;7.07;4.03;;;;;;;10.18;80.11;98062.25;10320935;28;20056;-59
2022/05/20 23:58:40;;;;;;;9.48;4.22;;;;;;;10.16;79.94;98056.19;10336368;28;20014;-59
